createdAt,value
2017-09-27T00:00:04.382Z,0.00
2017-09-27T00:01:04.820Z,0.00
2017-09-27T00:02:05.249Z,0.00
2017-09-27T00:03:05.676Z,0.00
2017-09-27T00:04:06.124Z,0.00
2017-09-27T00:05:06.574Z,0.00
2017-09-27T00:06:06.975Z,0.00
2017-09-27T00:07:07.406Z,0.00
2017-09-27T00:08:07.836Z,0.00
2017-09-27T00:09:08.269Z,0.00
2017-09-27T00:10:08.705Z,0.00
2017-09-27T00:11:09.130Z,0.00
2017-09-27T00:12:09.562Z,0.00
2017-09-27T00:13:09.994Z,0.00
2017-09-27T00:14:10.423Z,0.00
2017-09-27T00:15:10.863Z,0.00
2017-09-27T00:16:11.287Z,0.00
2017-09-27T00:17:11.720Z,0.00
2017-09-27T00:18:12.154Z,0.00
2017-09-27T00:19:12.583Z,0.00
2017-09-27T00:20:13.013Z,0.00
2017-09-27T00:21:13.456Z,0.00
2017-09-27T00:22:13.878Z,0.00
2017-09-27T00:23:14.315Z,0.00
2017-09-27T00:24:14.742Z,0.00
2017-09-27T00:25:15.178Z,0.00
2017-09-27T00:26:15.608Z,0.00
2017-09-27T00:27:16.035Z,0.00
2017-09-27T00:28:16.470Z,0.00
2017-09-27T00:29:16.898Z,0.00
2017-09-27T00:30:17.338Z,0.00
2017-09-27T00:31:17.766Z,0.00
2017-09-27T00:32:18.198Z,0.00
2017-09-27T00:33:18.625Z,0.00
2017-09-27T00:34:19.059Z,0.00
2017-09-27T00:35:19.500Z,0.00
2017-09-27T00:36:19.926Z,0.00
2017-09-27T00:37:20.356Z,0.00
2017-09-27T00:38:20.790Z,0.00
2017-09-27T00:39:21.219Z,0.00
2017-09-27T00:40:21.652Z,0.00
2017-09-27T00:41:22.087Z,0.00
2017-09-27T00:42:22.516Z,0.00
2017-09-27T00:43:22.952Z,0.00
2017-09-27T00:44:23.382Z,0.00
2017-09-27T00:45:23.816Z,0.00
2017-09-27T00:46:24.256Z,0.00
2017-09-27T00:47:25.300Z,0.00
2017-09-27T00:48:25.108Z,0.00
2017-09-27T00:49:25.536Z,0.00
2017-09-27T00:50:25.971Z,0.00
2017-09-27T00:51:26.403Z,0.00
2017-09-27T00:52:26.839Z,0.00
2017-09-27T00:53:27.267Z,0.00
2017-09-27T00:54:27.693Z,0.00
2017-09-27T00:55:28.135Z,0.00
2017-09-27T00:56:28.574Z,0.00
2017-09-27T00:57:28.989Z,0.00
2017-09-27T00:58:29.427Z,0.00
2017-09-27T00:59:29.859Z,0.00
2017-09-27T01:00:30.289Z,0.00
2017-09-27T01:01:30.726Z,0.00
2017-09-27T01:02:31.151Z,0.00
2017-09-27T01:03:31.588Z,0.00
2017-09-27T01:04:32.017Z,0.00
2017-09-27T01:05:32.445Z,0.00
2017-09-27T01:06:32.881Z,0.00
2017-09-27T01:07:33.341Z,0.00
2017-09-27T01:08:33.772Z,0.00
2017-09-27T01:09:34.191Z,0.00
2017-09-27T01:10:34.618Z,0.00
2017-09-27T01:11:35.038Z,0.00
2017-09-27T01:12:35.475Z,0.00
2017-09-27T01:13:35.910Z,0.00
2017-09-27T01:14:36.334Z,0.00
2017-09-27T01:15:36.766Z,0.00
2017-09-27T01:16:37.213Z,0.00
2017-09-27T01:17:37.632Z,0.00
2017-09-27T01:18:38.058Z,0.00
2017-09-27T01:19:38.494Z,0.00
2017-09-27T01:20:38.925Z,0.00
2017-09-27T01:21:39.367Z,0.00
2017-09-27T01:22:39.803Z,0.00
2017-09-27T01:23:40.221Z,0.00
2017-09-27T01:24:40.659Z,0.00
2017-09-27T01:25:41.081Z,0.00
2017-09-27T01:26:41.516Z,0.00
2017-09-27T01:27:41.954Z,0.00
2017-09-27T01:28:42.380Z,0.00
2017-09-27T01:29:42.808Z,0.00
2017-09-27T01:30:43.251Z,0.00
2017-09-27T01:31:43.676Z,0.00
2017-09-27T01:32:44.108Z,0.00
2017-09-27T01:33:44.534Z,0.00
2017-09-27T01:34:44.972Z,0.00
2017-09-27T01:35:45.399Z,0.00
2017-09-27T01:36:45.831Z,0.00
2017-09-27T01:37:46.266Z,0.00
2017-09-27T01:38:46.692Z,0.00
2017-09-27T01:39:47.126Z,0.00
2017-09-27T01:40:47.574Z,0.00
2017-09-27T01:41:47.987Z,0.00
2017-09-27T01:42:48.422Z,0.00
2017-09-27T01:43:48.858Z,0.00
2017-09-27T01:44:49.284Z,0.00
2017-09-27T01:45:49.716Z,0.00
2017-09-27T01:46:50.145Z,0.00
2017-09-27T01:47:50.574Z,0.00
2017-09-27T01:48:51.011Z,0.00
2017-09-27T01:49:51.437Z,0.00
2017-09-27T01:50:51.868Z,0.00
2017-09-27T01:51:52.302Z,0.00
2017-09-27T01:52:52.736Z,0.00
2017-09-27T01:53:53.165Z,0.00
2017-09-27T01:54:53.597Z,0.00
2017-09-27T01:55:54.027Z,0.00
2017-09-27T01:56:54.463Z,0.00
2017-09-27T01:57:54.892Z,0.00
2017-09-27T01:58:55.318Z,0.00
2017-09-27T01:59:55.752Z,0.00
2017-09-27T02:00:56.187Z,0.00
2017-09-27T02:01:56.613Z,0.00
2017-09-27T02:02:57.046Z,0.00
2017-09-27T02:03:57.483Z,0.00
2017-09-27T02:04:57.911Z,0.00
2017-09-27T02:05:58.361Z,0.00
2017-09-27T02:06:58.791Z,0.00
2017-09-27T02:07:59.201Z,0.00
2017-09-27T02:08:59.634Z,0.00
2017-09-27T02:10:00.071Z,0.00
2017-09-27T02:11:00.500Z,0.00
2017-09-27T02:12:00.933Z,0.00
2017-09-27T02:13:01.369Z,0.00
2017-09-27T02:14:01.798Z,0.00
2017-09-27T02:15:02.228Z,0.00
2017-09-27T02:16:02.669Z,0.00
2017-09-27T02:17:03.089Z,0.00
2017-09-27T02:18:03.519Z,0.00
2017-09-27T02:19:03.951Z,0.00
2017-09-27T02:20:04.389Z,0.00
2017-09-27T02:21:04.818Z,0.00
2017-09-27T02:22:05.248Z,0.00
2017-09-27T02:23:05.684Z,0.00
2017-09-27T02:24:06.117Z,0.00
2017-09-27T02:25:06.542Z,0.00
2017-09-27T02:26:06.982Z,0.00
2017-09-27T02:27:07.408Z,0.00
2017-09-27T02:28:07.840Z,0.00
2017-09-27T02:29:08.269Z,0.00
2017-09-27T02:30:08.719Z,0.00
2017-09-27T02:31:09.135Z,0.00
2017-09-27T02:32:09.566Z,0.00
2017-09-27T02:33:09.999Z,0.00
2017-09-27T02:34:10.431Z,0.00
2017-09-27T02:35:10.859Z,0.00
2017-09-27T02:36:11.294Z,0.00
2017-09-27T02:37:11.728Z,0.00
2017-09-27T02:38:12.158Z,0.00
2017-09-27T02:39:12.611Z,0.00
2017-09-27T02:40:13.027Z,0.00
2017-09-27T02:41:13.457Z,0.00
2017-09-27T02:42:13.892Z,0.00
2017-09-27T02:43:14.319Z,0.00
2017-09-27T02:44:14.751Z,0.00
2017-09-27T02:45:15.188Z,0.00
2017-09-27T02:46:15.619Z,0.00
2017-09-27T02:47:16.047Z,0.00
2017-09-27T02:48:16.485Z,0.00
2017-09-27T02:49:16.919Z,0.00
2017-09-27T02:50:17.359Z,0.00
2017-09-27T02:51:17.773Z,0.00
2017-09-27T02:52:18.244Z,0.00
2017-09-27T02:53:18.640Z,0.00
2017-09-27T02:54:19.075Z,0.00
2017-09-27T02:55:19.512Z,0.00
2017-09-27T02:56:19.941Z,0.00
2017-09-27T02:57:20.372Z,0.00
2017-09-27T02:58:20.800Z,0.00
2017-09-27T02:59:21.235Z,0.00
2017-09-27T03:00:21.669Z,0.00
2017-09-27T03:01:22.095Z,0.00
2017-09-27T03:02:22.530Z,0.00
2017-09-27T03:03:22.957Z,0.00
2017-09-27T03:04:23.396Z,0.00
2017-09-27T03:05:23.828Z,0.00
2017-09-27T03:06:24.261Z,0.00
2017-09-27T03:07:24.692Z,0.00
2017-09-27T03:08:25.126Z,0.00
2017-09-27T03:09:25.556Z,0.00
2017-09-27T03:10:25.992Z,0.00
2017-09-27T03:11:26.419Z,0.00
2017-09-27T03:12:26.855Z,0.00
2017-09-27T03:13:27.289Z,0.00
2017-09-27T03:14:27.719Z,0.00
2017-09-27T03:15:28.147Z,0.00
2017-09-27T03:16:28.583Z,0.00
2017-09-27T03:17:29.031Z,0.00
2017-09-27T03:18:29.449Z,0.00
2017-09-27T03:19:29.876Z,0.00
2017-09-27T03:20:30.310Z,0.00
2017-09-27T03:21:30.744Z,0.00
2017-09-27T03:22:31.174Z,0.00
2017-09-27T03:23:31.612Z,0.00
2017-09-27T03:24:32.045Z,0.00
2017-09-27T03:25:32.509Z,0.00
2017-09-27T03:26:32.929Z,0.00
2017-09-27T03:27:33.336Z,0.00
2017-09-27T03:28:33.777Z,0.00
2017-09-27T03:29:34.205Z,0.00
2017-09-27T03:30:34.639Z,0.00
2017-09-27T03:31:35.075Z,0.00
2017-09-27T03:32:35.505Z,0.00
2017-09-27T03:33:35.929Z,0.00
2017-09-27T03:34:36.361Z,0.00
2017-09-27T03:35:36.814Z,0.00
2017-09-27T03:36:37.228Z,0.00
2017-09-27T03:37:37.659Z,0.00
2017-09-27T03:38:38.089Z,0.00
2017-09-27T03:39:38.520Z,0.00
2017-09-27T03:40:38.955Z,0.00
2017-09-27T03:41:39.387Z,0.00
2017-09-27T03:42:39.816Z,0.00
2017-09-27T03:43:40.252Z,0.00
2017-09-27T03:44:40.683Z,0.00
2017-09-27T03:45:41.110Z,0.00
2017-09-27T03:46:41.545Z,0.00
2017-09-27T03:47:41.976Z,0.00
2017-09-27T03:48:42.421Z,0.00
2017-09-27T03:49:42.841Z,0.00
2017-09-27T03:50:43.275Z,0.00
2017-09-27T03:51:43.700Z,0.00
2017-09-27T03:52:44.138Z,0.00
2017-09-27T03:53:44.573Z,0.00
2017-09-27T03:54:45.003Z,0.00
2017-09-27T03:55:45.438Z,0.00
2017-09-27T03:56:45.866Z,0.00
2017-09-27T03:57:46.295Z,0.00
2017-09-27T03:58:46.737Z,0.00
2017-09-27T03:59:47.163Z,0.00
2017-09-27T04:00:47.606Z,0.00
2017-09-27T04:01:48.036Z,0.00
2017-09-27T04:02:48.454Z,0.00
2017-09-27T04:03:48.890Z,0.00
2017-09-27T04:04:49.316Z,0.00
2017-09-27T04:05:49.751Z,0.00
2017-09-27T04:06:50.180Z,0.00
2017-09-27T04:07:50.612Z,0.00
2017-09-27T04:08:51.042Z,0.00
2017-09-27T04:09:51.480Z,0.00
2017-09-27T04:10:51.909Z,0.00
2017-09-27T04:11:52.340Z,0.00
2017-09-27T04:12:52.778Z,0.00
2017-09-27T04:13:53.209Z,0.00
2017-09-27T04:14:53.635Z,0.00
2017-09-27T04:15:54.071Z,0.00
2017-09-27T04:16:54.505Z,0.00
2017-09-27T04:17:54.941Z,0.00
2017-09-27T04:18:55.368Z,0.00
2017-09-27T04:19:55.796Z,0.00
2017-09-27T04:20:56.236Z,0.00
2017-09-27T04:21:56.666Z,0.00
2017-09-27T04:22:57.092Z,0.00
2017-09-27T04:23:57.528Z,0.00
2017-09-27T04:24:57.960Z,0.00
2017-09-27T04:25:58.951Z,0.00
2017-09-27T04:26:58.828Z,0.00
2017-09-27T04:27:59.255Z,0.00
2017-09-27T04:28:59.683Z,0.00
2017-09-27T04:30:00.121Z,0.00
2017-09-27T04:31:00.551Z,0.00
2017-09-27T04:32:00.987Z,0.00
2017-09-27T04:33:01.415Z,0.00
2017-09-27T04:34:01.852Z,0.00
2017-09-27T04:35:02.272Z,0.00
2017-09-27T04:36:02.705Z,4.00
2017-09-27T04:37:03.145Z,4.00
2017-09-27T04:38:03.573Z,4.00
2017-09-27T04:39:04.003Z,4.00
2017-09-27T04:40:04.439Z,4.00
2017-09-27T04:41:04.868Z,4.00
2017-09-27T04:42:05.302Z,8.00
2017-09-27T04:43:05.733Z,8.00
2017-09-27T04:44:06.162Z,8.00
2017-09-27T04:45:06.597Z,12.00
2017-09-27T04:46:07.028Z,16.00
2017-09-27T04:47:07.466Z,20.00
2017-09-27T04:48:07.892Z,16.00
2017-09-27T04:49:08.321Z,20.00
2017-09-27T04:50:08.756Z,24.00
2017-09-27T04:51:09.197Z,32.00
2017-09-27T04:52:09.620Z,32.00
2017-09-27T04:53:10.051Z,36.00
2017-09-27T04:54:10.483Z,44.00
2017-09-27T04:55:10.913Z,48.00
2017-09-27T04:56:11.345Z,52.00
2017-09-27T04:57:11.788Z,56.00
2017-09-27T04:58:12.216Z,64.00
2017-09-27T04:59:12.647Z,72.00
2017-09-27T05:00:13.112Z,80.00
2017-09-27T05:01:13.512Z,84.00
2017-09-27T05:02:13.937Z,88.00
2017-09-27T05:03:14.368Z,100.00
2017-09-27T05:04:14.800Z,100.00
2017-09-27T05:05:15.240Z,108.00
2017-09-27T05:06:15.665Z,128.00
2017-09-27T05:07:16.103Z,136.00
2017-09-27T05:08:16.537Z,148.00
2017-09-27T05:09:16.971Z,164.00
2017-09-27T05:10:17.396Z,168.00
2017-09-27T05:11:17.823Z,168.00
2017-09-27T05:12:18.258Z,196.00
2017-09-27T05:13:18.696Z,200.00
2017-09-27T05:14:19.121Z,212.00
2017-09-27T05:15:19.552Z,236.00
2017-09-27T05:16:19.984Z,248.00
2017-09-27T05:17:20.420Z,248.00
2017-09-27T05:18:20.847Z,252.00
2017-09-27T05:19:21.281Z,276.00
2017-09-27T05:20:21.717Z,296.00
2017-09-27T05:21:22.149Z,324.00
2017-09-27T05:22:22.578Z,352.00
2017-09-27T05:23:23.016Z,432.00
2017-09-27T05:24:23.444Z,436.00
2017-09-27T05:25:23.874Z,456.00
2017-09-27T05:26:24.302Z,524.00
2017-09-27T05:27:24.744Z,560.00
2017-09-27T05:28:25.168Z,588.00
2017-09-27T05:29:25.599Z,596.00
2017-09-27T05:30:26.034Z,672.00
2017-09-27T05:31:26.460Z,732.00
2017-09-27T05:32:26.894Z,728.00
2017-09-27T05:33:27.329Z,692.00
2017-09-27T05:34:27.762Z,788.00
2017-09-27T05:35:28.187Z,748.00
2017-09-27T05:36:29.410Z,840.00
2017-09-27T05:37:29.053Z,824.00
2017-09-27T05:38:29.486Z,828.00
2017-09-27T05:39:29.920Z,740.00
2017-09-27T05:40:30.354Z,748.00
2017-09-27T05:41:30.787Z,836.00
2017-09-27T05:42:31.217Z,760.00
2017-09-27T05:43:31.644Z,756.00
2017-09-27T05:44:32.081Z,768.00
2017-09-27T05:45:32.509Z,732.00
2017-09-27T05:46:32.957Z,704.00
2017-09-27T05:47:33.376Z,712.00
2017-09-27T05:48:33.808Z,736.00
2017-09-27T05:49:34.238Z,704.00
2017-09-27T05:50:34.667Z,692.00
2017-09-27T05:51:35.098Z,640.00
2017-09-27T05:52:35.533Z,668.00
2017-09-27T05:53:35.972Z,748.00
2017-09-27T05:54:36.401Z,776.00
2017-09-27T05:55:36.843Z,784.00
2017-09-27T05:56:37.259Z,784.00
2017-09-27T05:57:37.697Z,772.00
2017-09-27T05:58:38.130Z,812.00
2017-09-27T05:59:38.561Z,880.00
2017-09-27T06:00:38.993Z,932.00
2017-09-27T06:01:39.425Z,912.00
2017-09-27T06:02:39.856Z,984.00
2017-09-27T06:03:40.290Z,1056.00
2017-09-27T06:04:40.717Z,956.00
2017-09-27T06:05:41.167Z,968.00
2017-09-27T06:06:41.588Z,992.00
2017-09-27T06:07:42.017Z,992.00
2017-09-27T06:08:42.458Z,940.00
2017-09-27T06:09:42.884Z,912.00
2017-09-27T06:10:43.316Z,892.00
2017-09-27T06:11:43.743Z,932.00
2017-09-27T06:12:44.177Z,1052.00
2017-09-27T06:13:44.612Z,1008.00
2017-09-27T06:14:45.060Z,1032.00
2017-09-27T06:15:45.473Z,1056.00
2017-09-27T06:16:45.912Z,1292.00
2017-09-27T06:17:46.342Z,1376.00
2017-09-27T06:18:46.776Z,1612.00
2017-09-27T06:19:47.205Z,1820.00
2017-09-27T06:20:47.640Z,1588.00
2017-09-27T06:21:48.073Z,1620.00
2017-09-27T06:22:48.511Z,1812.00
2017-09-27T06:23:48.934Z,1704.00
2017-09-27T06:24:49.376Z,1616.00
2017-09-27T06:25:49.802Z,1384.00
2017-09-27T06:26:50.230Z,1428.00
2017-09-27T06:27:50.667Z,1576.00
2017-09-27T06:28:51.095Z,1728.00
2017-09-27T06:29:51.529Z,1700.00
2017-09-27T06:30:51.961Z,1624.00
2017-09-27T06:31:52.398Z,1556.00
2017-09-27T06:32:52.824Z,1576.00
2017-09-27T06:33:53.276Z,1572.00
2017-09-27T06:34:53.723Z,1720.00
2017-09-27T06:35:54.144Z,1800.00
2017-09-27T06:36:54.560Z,1768.00
2017-09-27T06:37:55.024Z,1760.00
2017-09-27T06:38:55.426Z,1860.00
2017-09-27T06:39:55.853Z,1880.00
2017-09-27T06:40:56.299Z,1888.00
2017-09-27T06:41:56.720Z,2020.00
2017-09-27T06:42:57.166Z,1868.00
2017-09-27T06:43:57.587Z,2036.00
2017-09-27T06:44:58.015Z,1884.00
2017-09-27T06:45:58.610Z,1704.00
2017-09-27T06:46:58.876Z,1784.00
2017-09-27T06:47:59.325Z,1748.00
2017-09-27T06:48:59.745Z,1908.00
2017-09-27T06:50:00.179Z,1968.00
2017-09-27T06:51:00.616Z,2036.00
2017-09-27T06:52:01.045Z,1892.00
2017-09-27T06:53:01.492Z,2152.00
2017-09-27T06:54:01.912Z,2320.00
2017-09-27T06:55:02.361Z,2268.00
2017-09-27T06:56:02.787Z,2304.00
2017-09-27T06:57:03.212Z,1968.00
2017-09-27T06:58:03.687Z,2196.00
2017-09-27T06:59:04.077Z,2384.00
2017-09-27T07:00:04.507Z,2240.00
2017-09-27T07:01:04.945Z,2172.00
2017-09-27T07:02:05.369Z,2308.00
2017-09-27T07:03:05.835Z,2316.00
2017-09-27T07:04:06.236Z,2036.00
2017-09-27T07:05:06.716Z,2224.00
2017-09-27T07:06:07.112Z,2292.00
2017-09-27T07:07:07.564Z,2372.00
2017-09-27T07:08:07.999Z,2620.00
2017-09-27T07:09:08.436Z,2580.00
2017-09-27T07:10:08.875Z,2536.00
2017-09-27T07:11:09.292Z,2548.00
2017-09-27T07:12:09.720Z,2472.00
2017-09-27T07:13:10.154Z,2380.00
2017-09-27T07:14:10.588Z,2332.00
2017-09-27T07:15:11.029Z,2540.00
2017-09-27T07:16:11.466Z,2740.00
2017-09-27T07:17:11.894Z,2540.00
2017-09-27T07:18:12.319Z,2316.00
2017-09-27T07:19:12.751Z,2648.00
2017-09-27T07:20:13.194Z,2580.00
2017-09-27T07:21:13.611Z,2708.00
2017-09-27T07:22:14.052Z,2692.00
2017-09-27T07:23:14.485Z,2780.00
2017-09-27T07:24:14.915Z,2964.00
2017-09-27T07:25:15.373Z,2924.00
2017-09-27T07:26:15.775Z,3036.00
2017-09-27T07:27:16.220Z,3496.00
2017-09-27T07:28:16.690Z,4024.00
2017-09-27T07:29:17.126Z,4184.00
2017-09-27T07:30:17.512Z,3780.00
2017-09-27T07:31:17.945Z,4340.00
2017-09-27T07:32:18.387Z,4640.00
2017-09-27T07:33:18.811Z,3984.00
2017-09-27T07:34:19.253Z,4688.00
2017-09-27T07:35:19.689Z,4984.00
2017-09-27T07:36:20.135Z,4132.00
2017-09-27T07:37:20.545Z,3708.00
2017-09-27T07:38:20.962Z,4916.00
2017-09-27T07:39:21.412Z,5616.00
2017-09-27T07:40:21.861Z,4616.00
2017-09-27T07:41:22.259Z,4784.00
2017-09-27T07:42:22.701Z,5368.00
2017-09-27T07:43:23.126Z,4640.00
2017-09-27T07:44:23.561Z,5240.00
2017-09-27T07:45:23.999Z,5700.00
2017-09-27T07:46:24.435Z,5368.00
2017-09-27T07:47:24.860Z,4400.00
2017-09-27T07:48:25.324Z,4720.00
2017-09-27T07:49:25.729Z,5636.00
2017-09-27T07:50:26.212Z,6192.00
2017-09-27T07:51:26.596Z,5352.00
2017-09-27T07:52:27.033Z,6540.00
2017-09-27T07:53:27.464Z,5316.00
2017-09-27T07:54:27.938Z,5548.00
2017-09-27T07:55:28.373Z,5120.00
2017-09-27T07:56:28.799Z,4452.00
2017-09-27T07:57:29.228Z,3916.00
2017-09-27T07:58:29.642Z,4328.00
2017-09-27T07:59:30.098Z,4540.00
2017-09-27T08:00:30.594Z,4168.00
2017-09-27T08:01:30.958Z,4716.00
2017-09-27T08:02:31.416Z,5152.00
2017-09-27T08:03:31.813Z,4652.00
2017-09-27T08:04:32.250Z,4188.00
2017-09-27T08:05:32.680Z,4372.00
2017-09-27T08:06:33.124Z,6948.00
2017-09-27T08:07:33.604Z,8184.00
2017-09-27T08:08:34.006Z,7324.00
2017-09-27T08:09:34.437Z,6852.00
2017-09-27T08:10:34.850Z,7344.00
2017-09-27T08:11:35.295Z,6560.00
2017-09-27T08:12:35.737Z,7364.00
2017-09-27T08:13:36.162Z,7776.00
2017-09-27T08:14:36.584Z,7848.00
2017-09-27T08:15:37.039Z,7272.00
2017-09-27T08:16:37.461Z,6424.00
2017-09-27T08:17:37.891Z,6964.00
2017-09-27T08:18:38.356Z,7368.00
2017-09-27T08:19:38.776Z,7088.00
2017-09-27T08:20:39.211Z,7156.00
2017-09-27T08:21:39.635Z,7584.00
2017-09-27T08:22:40.072Z,6716.00
2017-09-27T08:23:40.502Z,5660.00
2017-09-27T08:24:40.940Z,5628.00
2017-09-27T08:25:41.373Z,5652.00
2017-09-27T08:26:41.808Z,5832.00
2017-09-27T08:27:42.246Z,7464.00
2017-09-27T08:28:42.678Z,5584.00
2017-09-27T08:29:43.109Z,5996.00
2017-09-27T08:30:43.569Z,6248.00
2017-09-27T08:31:43.984Z,5336.00
2017-09-27T08:32:44.432Z,3748.00
2017-09-27T08:33:44.878Z,3792.00
2017-09-27T08:34:45.297Z,4824.00
2017-09-27T08:35:45.729Z,4716.00
2017-09-27T08:36:46.160Z,6528.00
2017-09-27T08:37:46.592Z,8888.00
2017-09-27T08:38:47.030Z,7264.00
2017-09-27T08:39:47.460Z,9012.00
2017-09-27T08:40:47.904Z,10872.00
2017-09-27T08:41:48.337Z,10204.00
2017-09-27T08:42:48.767Z,10668.00
2017-09-27T08:43:49.206Z,11820.00
2017-09-27T08:44:49.645Z,11588.00
2017-09-27T08:45:50.071Z,9520.00
2017-09-27T08:46:50.509Z,10920.00
2017-09-27T08:47:50.945Z,7596.00
2017-09-27T08:48:51.379Z,8184.00
2017-09-27T08:49:51.817Z,6596.00
2017-09-27T08:50:52.252Z,10020.00
2017-09-27T08:51:52.692Z,8760.00
2017-09-27T08:52:53.125Z,10980.00
2017-09-27T08:53:53.561Z,8464.00
2017-09-27T08:54:54.000Z,7348.00
2017-09-27T08:55:54.449Z,6104.00
2017-09-27T08:56:54.872Z,6196.00
2017-09-27T08:57:55.303Z,7188.00
2017-09-27T08:58:55.743Z,7592.00
2017-09-27T08:59:56.195Z,6616.00
2017-09-27T09:00:56.616Z,9548.00
2017-09-27T09:01:57.067Z,9160.00
2017-09-27T09:02:57.489Z,9932.00
2017-09-27T09:03:57.933Z,14140.00
2017-09-27T09:04:58.368Z,13972.00
2017-09-27T09:05:58.804Z,15208.00
2017-09-27T09:06:59.235Z,19776.00
2017-09-27T09:07:59.672Z,13188.00
2017-09-27T09:09:00.114Z,13536.00
2017-09-27T09:10:00.549Z,17056.00
2017-09-27T09:11:00.990Z,15612.00
2017-09-27T09:12:01.426Z,16544.00
2017-09-27T09:13:01.867Z,6644.00
2017-09-27T09:14:02.300Z,9280.00
2017-09-27T09:15:02.741Z,9768.00
2017-09-27T09:16:03.177Z,12924.00
2017-09-27T09:17:03.614Z,11640.00
2017-09-27T09:18:04.050Z,7024.00
2017-09-27T09:19:04.499Z,6984.00
2017-09-27T09:20:04.931Z,7116.00
2017-09-27T09:21:05.387Z,9288.00
2017-09-27T09:22:05.836Z,12000.00
2017-09-27T09:23:06.255Z,8744.00
2017-09-27T09:24:06.687Z,12640.00
2017-09-27T09:25:07.125Z,10800.00
2017-09-27T09:26:07.558Z,10960.00
2017-09-27T09:27:07.999Z,9680.00
2017-09-27T09:28:08.436Z,15632.00
2017-09-27T09:29:08.873Z,16032.00
2017-09-27T09:30:09.329Z,19040.00
2017-09-27T09:31:09.750Z,13052.00
2017-09-27T09:32:10.187Z,21696.00
2017-09-27T09:33:10.628Z,15352.00
2017-09-27T09:34:11.067Z,21792.00
2017-09-27T09:35:11.507Z,14960.00
2017-09-27T09:36:11.946Z,16960.00
2017-09-27T09:37:12.386Z,17120.00
2017-09-27T09:38:12.826Z,11752.00
2017-09-27T09:39:13.261Z,17696.00
2017-09-27T09:40:13.711Z,24544.00
2017-09-27T09:41:14.145Z,17792.00
2017-09-27T09:42:14.585Z,13716.00
2017-09-27T09:43:15.025Z,17280.00
2017-09-27T09:44:15.469Z,16992.00
2017-09-27T09:45:15.909Z,14260.00
2017-09-27T09:46:16.346Z,24128.00
2017-09-27T09:47:16.791Z,22656.00
2017-09-27T09:48:17.229Z,48320.00
2017-09-27T09:49:17.671Z,15956.00
2017-09-27T09:50:18.116Z,21536.00
2017-09-27T09:51:18.564Z,34752.00
2017-09-27T09:52:18.998Z,15108.00
2017-09-27T09:53:19.435Z,15148.00
2017-09-27T09:54:19.888Z,9480.00
2017-09-27T09:55:20.328Z,11016.00
2017-09-27T09:56:20.776Z,15456.00
2017-09-27T09:57:21.210Z,12952.00
2017-09-27T09:58:21.652Z,16224.00
2017-09-27T09:59:22.095Z,14028.00
2017-09-27T10:00:22.538Z,11792.00
2017-09-27T10:01:22.976Z,10616.00
2017-09-27T10:02:23.426Z,12268.00
2017-09-27T10:03:23.871Z,10356.00
2017-09-27T10:04:24.313Z,12376.00
2017-09-27T10:05:24.751Z,9800.00
2017-09-27T10:06:25.195Z,11428.00
2017-09-27T10:07:25.634Z,17152.00
2017-09-27T10:08:26.079Z,18208.00
2017-09-27T10:09:26.517Z,19008.00
2017-09-27T10:10:26.959Z,28672.00
2017-09-27T10:11:27.404Z,25664.00
2017-09-27T10:12:27.848Z,13724.00
2017-09-27T10:13:28.288Z,14016.00
2017-09-27T10:14:28.725Z,10732.00
2017-09-27T10:15:29.169Z,9788.00
2017-09-27T10:16:29.616Z,11784.00
2017-09-27T10:17:30.054Z,14512.00
2017-09-27T10:18:30.498Z,11416.00
2017-09-27T10:19:30.937Z,14204.00
2017-09-27T10:20:31.392Z,15904.00
2017-09-27T10:21:31.820Z,19552.00
2017-09-27T10:22:32.265Z,18720.00
2017-09-27T10:23:32.712Z,14388.00
2017-09-27T10:24:33.148Z,14848.00
2017-09-27T10:25:33.608Z,38464.00
2017-09-27T10:26:34.039Z,24128.00
2017-09-27T10:27:34.478Z,17472.00
2017-09-27T10:28:34.925Z,33728.00
2017-09-27T10:29:35.364Z,15572.00
2017-09-27T10:30:35.810Z,17440.00
2017-09-27T10:31:36.257Z,19968.00
2017-09-27T10:32:36.694Z,15580.00
2017-09-27T10:33:37.144Z,15520.00
2017-09-27T10:34:37.591Z,15424.00
2017-09-27T10:35:38.026Z,12948.00
2017-09-27T10:36:38.483Z,17376.00
2017-09-27T10:37:38.913Z,13404.00
2017-09-27T10:38:39.365Z,16928.00
2017-09-27T10:39:39.802Z,20832.00
2017-09-27T10:40:40.243Z,21152.00
2017-09-27T10:41:40.684Z,15252.00
2017-09-27T10:42:41.127Z,13924.00
2017-09-27T10:43:41.578Z,21344.00
2017-09-27T10:44:42.036Z,14600.00
2017-09-27T10:45:42.458Z,16928.00
2017-09-27T10:46:42.923Z,15260.00
2017-09-27T10:47:43.356Z,13568.00
2017-09-27T10:48:43.795Z,13772.00
2017-09-27T10:49:44.235Z,12920.00
2017-09-27T10:50:44.674Z,13656.00
2017-09-27T10:51:45.129Z,13180.00
2017-09-27T10:52:45.571Z,15860.00
2017-09-27T10:53:46.009Z,19520.00
2017-09-27T10:54:46.454Z,25056.00
2017-09-27T10:55:46.895Z,16192.00
2017-09-27T10:56:47.346Z,23776.00
2017-09-27T10:57:47.776Z,16704.00
2017-09-27T10:58:48.233Z,13272.00
2017-09-27T10:59:48.668Z,19072.00
2017-09-27T11:00:49.160Z,13892.00
2017-09-27T11:01:49.555Z,15332.00
2017-09-27T11:02:49.999Z,11060.00
2017-09-27T11:03:50.446Z,9876.00
2017-09-27T11:04:50.884Z,7988.00
2017-09-27T11:05:51.324Z,9736.00
2017-09-27T11:06:51.771Z,11700.00
2017-09-27T11:07:52.214Z,10084.00
2017-09-27T11:08:52.662Z,9088.00
2017-09-27T11:09:53.108Z,11044.00
2017-09-27T11:10:53.545Z,12004.00
2017-09-27T11:11:53.985Z,14064.00
2017-09-27T11:12:54.431Z,17216.00
2017-09-27T11:13:54.872Z,19104.00
2017-09-27T11:14:55.340Z,21568.00
2017-09-27T11:15:55.755Z,18848.00
2017-09-27T11:16:56.194Z,23616.00
2017-09-27T11:17:56.637Z,18784.00
2017-09-27T11:18:57.084Z,17088.00
2017-09-27T11:19:57.526Z,15832.00
2017-09-27T11:20:57.969Z,14120.00
2017-09-27T11:21:58.414Z,14112.00
2017-09-27T11:22:58.858Z,12836.00
2017-09-27T11:23:59.305Z,12708.00
2017-09-27T11:24:59.746Z,13620.00
2017-09-27T11:26:00.190Z,13648.00
2017-09-27T11:27:00.633Z,14856.00
2017-09-27T11:28:01.071Z,16352.00
2017-09-27T11:29:01.518Z,16480.00
2017-09-27T11:30:01.968Z,14148.00
2017-09-27T11:31:02.412Z,14488.00
2017-09-27T11:32:02.848Z,15716.00
2017-09-27T11:33:03.296Z,19680.00
2017-09-27T11:34:03.742Z,38976.00
2017-09-27T11:35:04.196Z,16576.00
2017-09-27T11:36:04.626Z,19520.00
2017-09-27T11:37:05.106Z,26432.00
2017-09-27T11:38:05.512Z,22080.00
2017-09-27T11:39:05.965Z,20576.00
2017-09-27T11:40:06.404Z,20064.00
2017-09-27T11:41:06.851Z,20832.00
2017-09-27T11:42:07.291Z,16672.00
2017-09-27T11:43:07.742Z,20704.00
2017-09-27T11:44:08.187Z,19744.00
2017-09-27T11:45:08.630Z,18304.00
2017-09-27T11:46:09.070Z,22080.00
2017-09-27T11:47:09.526Z,21056.00
2017-09-27T11:48:09.964Z,19872.00
2017-09-27T11:49:10.412Z,20160.00
2017-09-27T11:50:10.856Z,20896.00
2017-09-27T11:51:11.300Z,21472.00
2017-09-27T11:52:11.753Z,20064.00
2017-09-27T11:53:12.194Z,20224.00
2017-09-27T11:54:12.638Z,20224.00
2017-09-27T11:55:13.084Z,18656.00
2017-09-27T11:56:13.533Z,17408.00
2017-09-27T11:57:13.987Z,15568.00
2017-09-27T11:58:14.423Z,17696.00
2017-09-27T11:59:14.867Z,17152.00
2017-09-27T12:00:15.320Z,17184.00
2017-09-27T12:01:15.759Z,17472.00
2017-09-27T12:02:16.201Z,17696.00
2017-09-27T12:03:16.644Z,16736.00
2017-09-27T12:04:17.097Z,15528.00
2017-09-27T12:05:17.543Z,15300.00
2017-09-27T12:06:17.981Z,12532.00
2017-09-27T12:07:18.428Z,14592.00
2017-09-27T12:08:18.874Z,15616.00
2017-09-27T12:09:19.314Z,17088.00
2017-09-27T12:10:19.762Z,17472.00
2017-09-27T12:11:20.206Z,17216.00
2017-09-27T12:12:20.657Z,17184.00
2017-09-27T12:13:21.096Z,14276.00
2017-09-27T12:14:21.539Z,12180.00
2017-09-27T12:15:21.982Z,11488.00
2017-09-27T12:16:22.452Z,12380.00
2017-09-27T12:17:22.888Z,13432.00
2017-09-27T12:18:23.325Z,13116.00
2017-09-27T12:19:23.768Z,12812.00
2017-09-27T12:20:24.204Z,13424.00
2017-09-27T12:21:24.651Z,12708.00
2017-09-27T12:22:25.089Z,10988.00
2017-09-27T12:23:25.536Z,10548.00
2017-09-27T12:24:25.978Z,9860.00
2017-09-27T12:25:26.432Z,10228.00
2017-09-27T12:26:26.874Z,10160.00
2017-09-27T12:27:27.319Z,10028.00
2017-09-27T12:28:27.752Z,9864.00
2017-09-27T12:29:28.195Z,9952.00
2017-09-27T12:30:28.634Z,9528.00
2017-09-27T12:31:29.087Z,9316.00
2017-09-27T12:32:29.535Z,9348.00
2017-09-27T12:33:29.968Z,9204.00